Time;durP1;ratioP1;P1;durP2;ratioP2;P2;SDS_P1;SDS_P2;PMS_P1;PMS_P2;Temp;Humidity;BMP_temperature;BMP_pressure;BME280_temperature;BME280_humidity;BME280_pressure;Samples;Min_cycle;Max_cycle;Signal;HPM_P1;HPM_P2
2022/01/08 00:01:30;;;;;;;4.53;1.27;;;;;;;9.14;66.25;100598.66;5056288;28;20041;-82
2022/01/08 00:03:59;;;;;;;8.30;2.60;;;;;;;9.13;64.30;100592.63;5037394;28;20107;-81
2022/01/08 00:06:29;;;;;;;8.23;2.25;;;;;;;9.10;64.71;100610.59;5052089;28;20080;-86
2022/01/08 00:08:58;;;;;;;5.47;1.05;;;;;;;9.07;63.29;100609.59;5040215;28;20511;-85
2022/01/08 00:11:27;;;;;;;4.50;1.05;;;;;;;9.02;62.19;100620.69;5043352;28;20041;-84
2022/01/08 00:13:56;;;;;;;5.57;1.05;;;;;;;8.95;62.73;100620.41;5052251;28;20041;-78
2022/01/08 00:16:25;;;;;;;6.25;0.95;;;;;;;8.90;64.54;100627.13;5034421;28;20057;-79
2022/01/08 00:18:53;;;;;;;6.75;1.20;;;;;;;8.84;63.70;100635.50;5036067;28;20562;-82
2022/01/08 00:21:22;;;;;;;5.35;1.27;;;;;;;8.76;63.42;100644.69;5034910;28;20049;-78
2022/01/08 00:23:52;;;;;;;8.00;2.08;;;;;;;8.68;65.12;100657.34;5034102;28;20099;-77
2022/01/08 00:26:20;;;;;;;6.15;1.05;;;;;;;8.60;66.75;100669.06;5062592;28;20052;-78
2022/01/08 00:28:49;;;;;;;12.52;1.27;;;;;;;8.54;68.12;100682.63;5034566;28;20127;-77
2022/01/08 00:31:17;;;;;;;8.55;1.20;;;;;;;8.47;68.05;100677.16;5034028;28;20049;-78
2022/01/08 00:33:47;;;;;;;3.97;1.40;;;;;;;8.39;68.03;100682.03;5033961;28;20084;-81
2022/01/08 00:36:15;;;;;;;4.20;1.08;;;;;;;8.29;66.71;100683.41;5033932;28;20046;-79
2022/01/08 00:38:44;;;;;;;6.68;1.27;;;;;;;8.21;69.25;100678.75;5033916;28;20275;-80
2022/01/08 00:41:14;;;;;;;5.20;1.33;;;;;;;8.12;70.71;100677.59;5033540;28;20529;-80
2022/01/08 00:43:42;;;;;;;7.38;1.25;;;;;;;8.07;73.29;100681.69;5051125;28;20057;-78
2022/01/08 00:46:11;;;;;;;4.95;1.20;;;;;;;8.03;72.09;100669.50;5053556;28;20549;-83
2022/01/08 00:48:39;;;;;;;5.28;0.75;;;;;;;7.98;72.92;100676.19;5036797;28;20045;-80
2022/01/08 00:51:08;;;;;;;7.15;1.15;;;;;;;7.94;72.42;100685.47;5034162;28;20154;-79
2022/01/08 00:53:36;;;;;;;2.45;0.63;;;;;;;7.88;73.71;100692.09;5033377;28;20076;-79
2022/01/08 00:56:05;;;;;;;6.68;1.08;;;;;;;7.85;75.16;100690.28;5033133;28;20049;-78
2022/01/08 00:58:35;;;;;;;7.50;1.13;;;;;;;7.80;74.31;100693.50;5033942;28;20406;-78
2022/01/08 01:01:04;;;;;;;6.63;1.73;;;;;;;7.76;75.61;100695.97;5052256;28;20071;-84
2022/01/08 01:03:33;;;;;;;7.95;1.45;;;;;;;7.74;77.39;100692.44;5039566;28;20092;-86
2022/01/08 01:06:01;;;;;;;9.35;1.85;;;;;;;7.71;76.69;100694.88;5061029;28;20045;-85
2022/01/08 01:08:30;;;;;;;5.47;1.65;;;;;;;7.71;76.89;100705.19;5046094;28;20050;-83
2022/01/08 01:10:58;;;;;;;2.20;1.05;;;;;;;7.69;78.26;100706.81;5038924;28;20049;-85
2022/01/08 01:13:27;;;;;;;4.40;1.67;;;;;;;7.68;77.50;100707.66;5038707;28;20045;-86
2022/01/08 01:15:57;;;;;;;8.15;1.88;;;;;;;7.62;77.68;100712.53;5058880;28;20074;-82
2022/01/08 01:18:25;;;;;;;10.07;1.65;;;;;;;7.59;76.79;100712.41;5047423;28;20056;-85
2022/01/08 01:20:57;;;;;;;7.53;1.30;;;;;;;7.54;82.49;100708.78;5050582;28;20045;-87
2022/01/08 01:23:31;;;;;;;4.45;1.30;;;;;;;7.44;82.47;100710.06;5059180;28;20051;-88
2022/01/08 01:26:03;;;;;;;9.10;1.45;;;;;;;7.32;83.91;100705.31;5051493;28;20098;-87
2022/01/08 01:28:42;;;;;;;3.30;1.03;;;;;;;7.28;85.41;100721.47;5035832;28;20056;-84
2022/01/08 01:42:34;;;;;;;6.65;1.42;;;;;;;7.22;87.24;100753.78;5037751;28;20593;-83
2022/01/08 01:47:48;;;;;;;14.30;1.73;;;;;;;7.10;84.82;100756.66;5015182;28;20048;-83
2022/01/08 01:50:16;;;;;;;5.68;2.25;;;;;;;7.03;85.65;100744.34;5034599;28;20049;-83
2022/01/08 01:52:45;;;;;;;7.55;1.25;;;;;;;6.93;84.87;100751.66;5034971;28;20088;-84
2022/01/08 01:55:13;;;;;;;8.23;1.42;;;;;;;6.86;84.83;100749.66;5035990;28;20224;-83
2022/01/08 01:57:57;;;;;;;9.98;1.13;;;;;;;6.80;86.97;100751.94;5035728;28;20566;-81
2022/01/08 02:00:25;;;;;;;11.07;1.35;;;;;;;6.79;87.24;100759.59;5042775;28;20098;-83
2022/01/08 02:02:56;;;;;;;12.15;1.45;;;;;;;6.77;88.50;100756.09;5041509;28;20081;-85
2022/01/08 02:05:24;;;;;;;3.50;1.08;;;;;;;6.75;87.69;100753.44;5037672;28;20545;-81
2022/01/08 02:07:55;;;;;;;6.50;1.13;;;;;;;6.71;87.42;100757.56;5043944;28;20053;-82
2022/01/08 02:10:23;;;;;;;9.85;1.10;;;;;;;6.73;89.13;100755.06;5040405;28;20077;-83
2022/01/08 02:12:52;;;;;;;2.53;1.13;;;;;;;6.75;88.43;100758.56;5032715;28;20523;-82
2022/01/08 02:15:20;;;;;;;4.53;0.77;;;;;;;6.78;89.52;100763.88;5034685;28;20046;-83
2022/01/08 02:17:49;;;;;;;15.73;1.20;;;;;;;6.81;90.41;100769.16;5041131;28;20134;-80
2022/01/08 02:20:19;;;;;;;8.55;0.88;;;;;;;6.84;90.65;100764.13;5040507;28;20049;-83
2022/01/08 02:22:48;;;;;;;5.68;1.60;;;;;;;6.84;90.17;100774.41;5031352;28;21336;-82
2022/01/08 02:25:21;;;;;;;7.18;1.00;;;;;;;6.85;90.07;100767.56;5030884;28;20045;-82
2022/01/08 02:27:50;;;;;;;7.32;1.08;;;;;;;6.83;90.41;100772.66;5032091;28;20133;-82
2022/01/08 02:30:19;;;;;;;4.35;1.23;;;;;;;6.89;88.87;100783.25;5031115;28;20053;-81
2022/01/08 02:32:47;;;;;;;3.25;1.20;;;;;;;6.91;89.95;100788.44;5031617;28;20041;-83
2022/01/08 02:35:21;;;;;;;3.30;1.15;;;;;;;6.92;90.70;100793.66;5031655;28;20049;-80
2022/01/08 02:37:51;;;;;;;6.25;1.17;;;;;;;6.95;90.91;100798.06;5032080;28;20053;-82
2022/01/08 02:40:20;;;;;;;5.80;1.52;;;;;;;6.96;91.39;100801.50;5031489;28;20059;-82
2022/01/08 02:42:52;;;;;;;7.90;1.40;;;;;;;6.95;90.04;100808.34;5043013;28;20049;-82
2022/01/08 02:45:23;;;;;;;5.75;1.13;;;;;;;6.97;88.90;100811.88;5038805;28;20108;-80
2022/01/08 02:47:51;;;;;;;4.80;1.40;;;;;;;6.97;88.77;100811.00;5042524;28;20088;-84
2022/01/08 02:50:20;;;;;;;7.03;1.20;;;;;;;6.97;88.49;100811.00;5034643;28;20049;-84
2022/01/08 02:52:51;;;;;;;7.18;1.27;;;;;;;6.95;89.46;100812.63;5045281;28;20071;-84
2022/01/08 02:55:21;;;;;;;3.60;1.30;;;;;;;6.95;88.71;100823.78;5031632;28;20537;-83
2022/01/08 02:57:50;;;;;;;5.82;1.23;;;;;;;6.93;87.75;100825.41;5033901;28;20057;-82
2022/01/08 03:00:21;;;;;;;5.82;1.40;;;;;;;6.90;89.33;100831.28;5038074;28;20399;-83
2022/01/08 03:02:51;;;;;;;5.72;1.15;;;;;;;6.91;89.60;100838.19;5039368;28;20519;-82
2022/01/08 03:05:20;;;;;;;7.18;2.22;;;;;;;6.90;90.07;100839.00;5038117;28;20041;-82
2022/01/08 03:07:51;;;;;;;6.30;2.33;;;;;;;6.91;89.71;100843.31;5042998;28;20081;-82
2022/01/08 03:10:20;;;;;;;4.45;0.90;;;;;;;6.91;90.05;100842.44;5038712;28;20048;-83
2022/01/08 03:12:49;;;;;;;10.07;1.75;;;;;;;6.85;89.12;100848.22;5035073;28;20065;-80
2022/01/08 03:15:19;;;;;;;5.05;1.30;;;;;;;6.78;90.50;100847.84;5045381;28;20061;-84
2022/01/08 03:17:49;;;;;;;14.60;1.65;;;;;;;6.79;90.03;100855.63;5034919;28;20139;-82
2022/01/08 03:20:18;;;;;;;7.05;0.98;;;;;;;6.76;89.58;100865.78;5033317;28;20085;-81
2022/01/08 03:22:48;;;;;;;8.48;2.35;;;;;;;6.72;89.73;100871.59;5032312;28;20046;-84
2022/01/08 03:25:18;;;;;;;6.45;1.50;;;;;;;6.71;92.34;100870.72;5041167;28;20568;-82
2022/01/08 03:27:48;;;;;;;12.25;1.38;;;;;;;6.70;92.40;100876.66;5050109;28;20142;-83
2022/01/08 03:30:17;;;;;;;9.65;1.42;;;;;;;6.69;90.32;100871.47;5032213;28;20170;-80
2022/01/08 03:32:45;;;;;;;5.25;1.08;;;;;;;6.67;91.74;100878.22;5032101;28;20056;-83
2022/01/08 03:35:14;;;;;;;10.02;1.60;;;;;;;6.56;91.16;100869.97;5046207;28;20049;-80
2022/01/08 03:37:42;;;;;;;11.73;1.98;;;;;;;6.57;90.67;100883.72;5032646;28;20514;-81
2022/01/08 03:40:11;;;;;;;4.88;0.82;;;;;;;6.56;91.44;100890.56;5032460;28;20077;-86
2022/01/08 03:42:42;;;;;;;5.63;1.17;;;;;;;6.55;91.47;100880.19;5032871;28;20110;-81
2022/01/08 03:45:11;;;;;;;7.57;1.02;;;;;;;6.52;89.92;100898.91;5032342;28;20057;-82
2022/01/08 03:50:25;;;;;;;4.40;1.45;;;;;;;6.48;89.65;100902.16;5033971;28;20056;-82
2022/01/08 03:52:53;;;;;;;5.28;0.88;;;;;;;6.46;89.31;100907.22;5032122;28;20730;-80
2022/01/08 03:55:22;;;;;;;4.93;0.73;;;;;;;6.43;89.82;100904.50;5034022;28;20111;-81
2022/01/08 03:57:52;;;;;;;2.08;0.77;;;;;;;6.39;89.94;100902.59;5035282;28;20046;-80
2022/01/08 04:00:21;;;;;;;13.75;1.83;;;;;;;6.35;89.71;100904.94;5040966;28;20103;-83
2022/01/08 04:02:51;;;;;;;6.55;1.15;;;;;;;6.32;90.35;100922.78;5041190;28;20046;-86
2022/01/08 04:05:19;;;;;;;8.20;1.67;;;;;;;6.31;91.44;100929.59;5036322;28;20148;-83
2022/01/08 04:07:48;;;;;;;4.85;0.90;;;;;;;6.32;94.85;100941.63;5032898;28;20081;-83
2022/01/08 04:10:16;;;;;;;12.98;1.48;;;;;;;6.29;99.46;100944.94;5034821;28;20056;-80
2022/01/08 04:12:48;;;;;;;3.13;1.00;;;;;;;6.28;100.00;100947.47;5030868;28;20107;-80
2022/01/08 04:15:35;;;;;;;4.97;0.70;;;;;;;6.30;100.00;100953.56;5032936;28;20111;-79
2022/01/08 04:18:04;;;;;;;8.73;1.02;;;;;;;6.27;100.00;100955.94;5032489;28;20317;-81
2022/01/08 04:20:33;;;;;;;1.25;0.60;;;;;;;6.25;100.00;100957.56;5032682;28;20049;-82
2022/01/08 04:23:02;;;;;;;5.38;1.05;;;;;;;6.22;100.00;100972.84;5047112;28;20053;-82
2022/01/08 04:25:31;;;;;;;4.60;0.85;;;;;;;6.19;100.00;100977.81;5035846;28;20046;-80
2022/01/08 04:28:00;;;;;;;6.95;1.10;;;;;;;6.11;100.00;100977.41;5035177;28;20061;-82
2022/01/08 04:30:30;;;;;;;2.25;0.55;;;;;;;6.11;100.00;100981.69;5035628;28;20125;-82
2022/01/08 04:32:58;;;;;;;9.15;0.98;;;;;;;6.06;100.00;100984.88;5034664;28;20050;-80
2022/01/08 04:35:27;;;;;;;8.25;1.67;;;;;;;6.03;100.00;100992.44;5036511;28;20103;-80
2022/01/08 04:37:55;;;;;;;3.70;0.98;;;;;;;5.95;100.00;101001.44;5035847;28;20045;-83
2022/01/08 04:40:23;;;;;;;2.72;0.57;;;;;;;5.94;100.00;100994.53;5037680;28;20073;-82
2022/01/08 04:42:52;;;;;;;4.10;0.85;;;;;;;5.93;100.00;101008.13;5048744;28;20123;-82
2022/01/08 04:45:21;;;;;;;7.13;0.77;;;;;;;5.92;100.00;101019.22;5040626;28;20564;-82
2022/01/08 04:47:51;;;;;;;9.75;1.02;;;;;;;5.88;100.00;101020.72;5047401;28;20048;-82
2022/01/08 04:50:20;;;;;;;7.43;0.90;;;;;;;5.85;100.00;101027.41;5041398;28;20452;-81
2022/01/08 04:52:49;;;;;;;3.50;0.70;;;;;;;5.83;100.00;101026.44;5035203;28;20045;-83
2022/01/08 04:55:17;;;;;;;3.15;0.63;;;;;;;5.81;100.00;101022.91;5034769;28;20119;-81
2022/01/08 04:57:46;;;;;;;2.60;0.90;;;;;;;5.72;100.00;101015.59;5038304;28;20049;-83
2022/01/08 05:00:18;;;;;;;6.00;0.75;;;;;;;5.72;100.00;101009.59;5040024;28;20119;-83
2022/01/08 05:02:47;;;;;;;2.58;0.90;;;;;;;5.71;100.00;101008.72;5044255;28;20080;-81
2022/01/08 05:05:17;;;;;;;1.70;0.55;;;;;;;5.70;100.00;101004.38;5043880;28;20057;-83
2022/01/08 05:07:46;;;;;;;3.85;0.70;;;;;;;5.70;100.00;101013.75;5055184;28;20056;-84
2022/01/08 05:10:15;;;;;;;3.67;0.65;;;;;;;5.69;100.00;101012.00;5045823;28;20094;-83
2022/01/08 05:12:44;;;;;;;3.90;0.60;;;;;;;5.67;100.00;101010.22;5037913;28;20053;-84
2022/01/08 05:15:15;;;;;;;3.75;0.77;;;;;;;5.69;100.00;101010.31;5038593;28;20104;-83
2022/01/08 05:17:46;;;;;;;13.02;1.23;;;;;;;5.69;100.00;101012.00;5044790;28;20052;-85
2022/01/08 05:20:17;;;;;;;3.05;0.40;;;;;;;5.69;100.00;101004.31;5043320;28;20583;-85
2022/01/08 05:22:52;;;;;;;6.80;0.95;;;;;;;5.66;100.00;101008.47;5053652;28;20127;-85
2022/01/08 05:25:21;;;;;;;5.50;0.80;;;;;;;5.70;100.00;101008.63;5045632;28;20089;-80
2022/01/08 05:27:50;;;;;;;4.13;0.70;;;;;;;5.70;100.00;101013.75;5034977;28;20132;-85
2022/01/08 05:30:22;;;;;;;5.10;0.93;;;;;;;5.73;100.00;101013.94;5033826;28;20046;-83
2022/01/08 05:32:51;;;;;;;6.43;0.98;;;;;;;5.75;100.00;101010.66;5035141;28;20103;-82
2022/01/08 05:35:21;;;;;;;1.55;0.70;;;;;;;5.78;100.00;101018.50;5042449;28;20510;-83
2022/01/08 05:37:50;;;;;;;5.95;1.52;;;;;;;5.68;100.00;101006.00;5043853;28;20107;-84
2022/01/08 05:40:19;;;;;;;3.10;0.82;;;;;;;5.77;100.00;101006.47;5039255;28;20075;-82
2022/01/08 05:42:47;;;;;;;7.68;0.93;;;;;;;5.75;100.00;101007.19;5044674;28;20045;-82
2022/01/08 05:45:18;;;;;;;10.75;1.05;;;;;;;5.72;100.00;101012.16;5034686;28;20061;-86
2022/01/08 05:47:47;;;;;;;5.55;1.25;;;;;;;5.72;100.00;101017.28;5033332;28;20231;-84
2022/01/08 05:50:15;;;;;;;1.10;0.68;;;;;;;5.72;100.00;101018.16;5034434;28;20049;-85
2022/01/08 05:52:45;;;;;;;3.30;0.80;;;;;;;5.72;100.00;101022.44;5033313;28;20049;-82
2022/01/08 05:55:14;;;;;;;5.25;0.77;;;;;;;5.73;100.00;101029.34;5034945;28;20046;-83
2022/01/08 05:57:42;;;;;;;7.47;1.38;;;;;;;5.73;100.00;101045.63;5036156;28;20046;-82
2022/01/08 06:00:12;;;;;;;7.50;1.48;;;;;;;5.71;100.00;101041.22;5036905;28;20111;-81
2022/01/08 06:02:41;;;;;;;4.18;1.15;;;;;;;5.72;100.00;101051.53;5042410;28;20112;-84
2022/01/08 06:05:11;;;;;;;4.22;0.75;;;;;;;5.71;100.00;101042.09;5041050;28;20106;-81
2022/01/08 06:07:39;;;;;;;1.40;0.50;;;;;;;5.72;100.00;101048.09;5032590;28;20049;-87
2022/01/08 06:10:10;;;;;;;5.57;1.08;;;;;;;5.71;100.00;101064.31;5035091;28;20081;-86
2022/01/08 06:12:39;;;;;;;6.30;1.02;;;;;;;5.66;100.00;101070.09;5033482;28;20115;-83
2022/01/08 06:15:09;;;;;;;3.47;0.80;;;;;;;5.60;100.00;101074.88;5034165;28;20065;-86
2022/01/08 06:17:38;;;;;;;2.80;0.73;;;;;;;5.57;100.00;101077.28;5032573;28;20080;-83
2022/01/08 06:20:08;;;;;;;2.15;0.40;;;;;;;5.51;100.00;101079.50;5032172;28;20107;-83
2022/01/08 06:22:36;;;;;;;3.75;1.05;;;;;;;5.55;100.00;101081.44;5031690;28;20076;-81
2022/01/08 06:25:06;;;;;;;3.47;0.85;;;;;;;5.53;100.00;101072.78;5032196;28;20049;-83
2022/01/08 06:27:36;;;;;;;1.95;0.80;;;;;;;5.59;100.00;101077.34;5032210;28;20664;-86
2022/01/08 06:30:05;;;;;;;2.90;0.57;;;;;;;5.62;100.00;101083.53;5033719;28;20045;-80
2022/01/08 06:32:33;;;;;;;3.53;0.95;;;;;;;5.65;100.00;101083.69;5033488;28;20696;-82
2022/01/08 06:35:02;;;;;;;1.60;0.30;;;;;;;5.64;100.00;101079.38;5031934;28;20510;-82
2022/01/08 06:37:31;;;;;;;0.73;0.45;;;;;;;5.67;100.00;101087.25;5031518;28;20057;-82
2022/01/08 06:39:59;;;;;;;3.65;0.50;;;;;;;5.70;100.00;101081.38;5032233;28;20049;-81
2022/01/08 06:42:27;;;;;;;6.22;0.75;;;;;;;5.75;100.00;101091.91;5050701;28;20120;-81
2022/01/08 06:44:58;;;;;;;3.30;0.77;;;;;;;5.77;100.00;101092.88;5037578;28;20041;-82
2022/01/08 06:47:26;;;;;;;4.45;0.98;;;;;;;5.75;100.00;101094.47;5031747;28;20045;-82
2022/01/08 06:49:55;;;;;;;5.35;0.52;;;;;;;5.70;100.00;101095.91;5032338;28;20077;-84
2022/01/08 06:52:23;;;;;;;2.60;0.55;;;;;;;5.69;100.00;101101.88;5037284;28;20119;-84
2022/01/08 06:54:52;;;;;;;3.80;0.95;;;;;;;5.67;100.00;101112.91;5046155;28;20055;-83
2022/01/08 06:57:20;;;;;;;3.90;1.00;;;;;;;5.69;100.00;101119.84;5055186;28;20054;-85
2022/01/08 06:59:49;;;;;;;3.10;0.98;;;;;;;5.71;100.00;101121.69;5042696;28;20114;-82
2022/01/08 07:02:19;;;;;;;4.03;0.77;;;;;;;5.74;100.00;101124.41;5042818;28;20479;-80
2022/01/08 07:04:47;;;;;;;7.07;0.82;;;;;;;5.75;100.00;101127.84;5032932;28;20085;-81
2022/01/08 07:07:16;;;;;;;2.60;1.00;;;;;;;5.78;100.00;101140.88;5031857;28;20458;-82
2022/01/08 07:09:45;;;;;;;8.90;0.85;;;;;;;5.81;100.00;101141.91;5051039;28;20049;-85
2022/01/08 07:12:13;;;;;;;5.07;0.90;;;;;;;5.84;100.00;101144.66;5036112;28;20521;-84
2022/01/08 07:14:42;;;;;;;5.78;0.85;;;;;;;5.89;100.00;101144.91;5033994;28;20068;-85
2022/01/08 07:17:13;;;;;;;5.13;0.88;;;;;;;5.93;100.00;101145.94;5034848;28;20061;-84
2022/01/08 07:19:43;;;;;;;9.43;1.67;;;;;;;5.95;100.00;101144.38;5051255;28;20053;-85
2022/01/08 07:22:12;;;;;;;7.35;1.83;;;;;;;5.95;100.00;101144.38;5033708;28;20112;-84
2022/01/08 07:24:41;;;;;;;4.65;0.88;;;;;;;5.94;100.00;101143.50;5033005;28;20069;-85
2022/01/08 07:27:09;;;;;;;5.25;1.08;;;;;;;5.87;100.00;101138.81;5034372;28;20049;-85
2022/01/08 07:29:38;;;;;;;0.73;0.30;;;;;;;5.91;100.00;101151.03;5036399;28;20107;-84
2022/01/08 07:32:07;;;;;;;7.47;1.08;;;;;;;5.93;100.00;101159.66;5032104;28;20049;-84
2022/01/08 07:34:35;;;;;;;1.75;0.57;;;;;;;5.91;100.00;101153.59;5035250;28;20050;-86
2022/01/08 07:37:06;;;;;;;4.05;0.80;;;;;;;5.87;100.00;101172.19;5031971;28;20046;-85
2022/01/08 07:39:34;;;;;;;3.08;0.70;;;;;;;5.79;100.00;101178.59;5032184;28;20064;-84
2022/01/08 07:42:03;;;;;;;2.70;0.50;;;;;;;5.72;100.00;101179.03;5035482;28;20045;-82
2022/01/08 07:44:31;;;;;;;7.60;0.77;;;;;;;5.66;100.00;101174.47;5041489;28;20050;-85
2022/01/08 07:47:00;;;;;;;3.60;0.70;;;;;;;5.63;100.00;101175.16;5034692;28;20077;-85
2022/01/08 07:49:29;;;;;;;3.03;1.00;;;;;;;5.63;100.00;101177.72;5037084;28;20083;-87
2022/01/08 07:51:57;;;;;;;4.28;1.17;;;;;;;5.66;100.00;101180.47;5046894;28;20103;-86
2022/01/08 07:54:27;;;;;;;3.63;0.80;;;;;;;5.70;100.00;101189.22;5051647;28;20484;-85
2022/01/08 07:56:56;;;;;;;2.83;0.77;;;;;;;5.70;100.00;101188.34;5032618;28;20089;-84
2022/01/08 07:59:24;;;;;;;5.53;0.70;;;;;;;5.71;100.00;101195.25;5035238;28;20081;-83
2022/01/08 08:01:52;;;;;;;3.25;0.60;;;;;;;5.69;100.00;101202.00;5052819;28;20110;-84
2022/01/08 08:04:21;;;;;;;7.15;0.80;;;;;;;5.68;100.00;101211.38;5053731;28;20049;-84
2022/01/08 08:06:49;;;;;;;8.07;0.90;;;;;;;5.65;100.00;101218.88;5040425;28;20052;-82
2022/01/08 08:09:18;;;;;;;4.18;0.90;;;;;;;5.58;100.00;101221.91;5047462;28;20102;-81
2022/01/08 08:11:48;;;;;;;3.38;0.68;;;;;;;5.55;100.00;101229.44;5050690;28;20077;-83
2022/01/08 08:14:17;;;;;;;1.25;0.47;;;;;;;5.52;100.00;101232.72;5043933;28;20530;-81
2022/01/08 08:16:45;;;;;;;8.57;1.08;;;;;;;5.50;100.00;101229.19;5034690;28;20120;-82
2022/01/08 08:19:14;;;;;;;4.22;0.95;;;;;;;5.50;100.00;101230.84;5037120;28;20092;-84
2022/01/08 08:21:42;;;;;;;5.32;1.17;;;;;;;5.49;100.00;101240.22;5053968;28;20048;-83
2022/01/08 08:24:13;;;;;;;2.72;0.60;;;;;;;5.50;100.00;101242.03;5053836;28;20052;-82
2022/01/08 08:26:42;;;;;;;3.75;0.73;;;;;;;5.50;100.00;101236.88;5054818;28;20073;-82
2022/01/08 08:29:12;;;;;;;1.95;0.80;;;;;;;5.50;100.00;101242.03;5054216;28;20049;-82
2022/01/08 08:31:40;;;;;;;1.98;0.90;;;;;;;5.49;100.00;101244.47;5065566;28;20103;-84
2022/01/08 08:34:09;;;;;;;4.95;0.88;;;;;;;5.48;100.00;101253.00;5056992;28;20077;-83
2022/01/08 08:36:38;;;;;;;3.60;0.85;;;;;;;5.47;100.00;101257.22;5054266;28;20072;-84
2022/01/08 08:39:06;;;;;;;3.60;0.70;;;;;;;5.48;100.00;101259.00;5053852;28;20045;-84
2022/01/08 08:41:35;;;;;;;4.05;0.45;;;;;;;5.48;100.00;101253.88;5053955;28;20095;-82
2022/01/08 08:44:03;;;;;;;6.35;1.08;;;;;;;5.49;100.00;101250.50;5052579;28;20120;-83
2022/01/08 08:46:33;;;;;;;12.05;1.05;;;;;;;5.50;100.00;101257.41;5052525;28;20453;-83
2022/01/08 08:49:02;;;;;;;2.95;0.63;;;;;;;5.46;100.00;101256.34;5057022;28;20111;-83
2022/01/08 08:51:30;;;;;;;2.65;0.93;;;;;;;5.51;100.00;101259.19;5054409;28;20045;-80
2022/01/08 08:53:59;;;;;;;11.23;1.92;;;;;;;5.53;100.00;101270.41;5054229;28;20045;-84
2022/01/08 08:56:28;;;;;;;4.05;0.95;;;;;;;5.53;100.00;101261.84;5053642;28;20044;-80
2022/01/08 08:58:57;;;;;;;4.80;0.82;;;;;;;5.53;100.00;101259.28;5053823;28;20052;-83
2022/01/08 09:01:27;;;;;;;2.15;0.63;;;;;;;5.54;100.00;101261.91;5055554;28;20053;-83
2022/01/08 09:03:57;;;;;;;7.18;1.10;;;;;;;5.56;100.00;101270.59;5053271;28;20407;-82
2022/01/08 09:06:26;;;;;;;3.70;1.10;;;;;;;5.55;100.00;101261.13;5053831;28;20099;-83
2022/01/08 09:08:55;;;;;;;6.63;1.10;;;;;;;5.54;100.00;101277.31;5053131;28;20053;-84
2022/01/08 09:11:24;;;;;;;2.38;0.77;;;;;;;5.54;100.00;101277.31;5053369;28;20045;-84
2022/01/08 09:13:52;;;;;;;5.50;0.90;;;;;;;5.49;100.00;101291.56;5053361;28;20045;-82
2022/01/08 09:16:21;;;;;;;3.60;0.73;;;;;;;5.53;100.00;101292.63;5053722;28;20083;-84
2022/01/08 09:18:50;;;;;;;4.00;1.25;;;;;;;5.55;100.00;101291.06;5054699;27;20075;-85
2022/01/08 09:21:20;;;;;;;4.47;0.80;;;;;;;5.47;100.00;101285.44;5053870;28;20053;-81
2022/01/08 09:23:49;;;;;;;6.57;0.80;;;;;;;5.54;100.00;101297.84;5053238;28;20085;-81
2022/01/08 09:26:17;;;;;;;1.77;0.85;;;;;;;5.55;100.00;101312.47;5053669;28;20108;-82
2022/01/08 09:28:45;;;;;;;6.85;1.30;;;;;;;5.56;100.00;101310.78;5055334;28;20080;-85
2022/01/08 09:31:15;;;;;;;5.70;1.70;;;;;;;5.55;100.00;101309.03;5054228;28;20073;-85
2022/01/08 09:33:43;;;;;;;4.65;1.10;;;;;;;5.55;100.00;101309.91;5052996;28;20045;-84
2022/01/08 09:36:12;;;;;;;10.05;1.33;;;;;;;5.54;100.00;101309.81;5054109;28;20123;-84
2022/01/08 09:38:42;;;;;;;4.43;1.88;;;;;;;5.50;100.00;101323.25;5053619;28;20041;-82
2022/01/08 09:41:11;;;;;;;6.35;1.40;;;;;;;5.47;100.00;101329.09;5053820;28;20139;-82
2022/01/08 09:43:40;;;;;;;2.65;1.02;;;;;;;5.43;100.00;101320.34;5052925;28;20088;-83
2022/01/08 09:46:08;;;;;;;6.15;1.98;;;;;;;5.41;100.00;101329.63;5053107;28;20061;-81
2022/01/08 09:48:37;;;;;;;3.63;1.00;;;;;;;5.42;100.00;101340.75;5057993;28;20136;-83
2022/01/08 09:51:05;;;;;;;3.53;0.85;;;;;;;5.41;100.00;101350.16;5067098;28;20049;-79
2022/01/08 09:53:34;;;;;;;3.15;0.93;;;;;;;5.43;100.00;101347.69;5053222;28;20045;-81
2022/01/08 09:56:04;;;;;;;6.05;0.80;;;;;;;5.43;100.00;101347.69;5053780;28;20053;-80
2022/01/08 09:58:33;;;;;;;3.78;0.88;;;;;;;5.41;100.00;101357.84;5066853;28;20052;-82
2022/01/08 10:01:01;;;;;;;4.57;1.23;;;;;;;5.40;100.00;101363.75;5052400;28;20045;-81
2022/01/08 10:03:32;;;;;;;5.22;1.10;;;;;;;5.42;100.00;101372.44;5051823;28;20080;-84
2022/01/08 10:06:01;;;;;;;9.95;1.83;;;;;;;5.42;100.00;101381.84;5052658;28;20049;-81
2022/01/08 10:08:32;;;;;;;3.88;1.00;;;;;;;5.41;100.00;101380.06;5052580;28;20087;-85
2022/01/08 10:11:04;;;;;;;1.80;0.95;;;;;;;5.41;100.00;101388.66;5056852;28;20160;-81
2022/01/08 10:13:36;;;;;;;6.05;1.02;;;;;;;5.45;100.00;101387.13;5054258;28;20107;-81
2022/01/08 10:18:51;;;;;;;3.40;1.15;;;;;;;5.42;100.00;101385.28;5054451;28;20067;-84
2022/01/08 10:21:23;;;;;;;4.85;1.60;;;;;;;5.42;100.00;101392.97;5051721;28;20045;-82
2022/01/08 10:23:53;;;;;;;3.90;1.02;;;;;;;5.46;100.00;101388.94;5052120;28;20048;-83
2022/01/08 10:26:28;;;;;;;5.10;0.95;;;;;;;5.50;100.00;101392.53;5051640;28;20048;-85
2022/01/08 10:28:58;;;;;;;11.23;1.13;;;;;;;5.56;100.00;101387.78;5052437;28;20041;-83
2022/01/08 10:31:28;;;;;;;6.47;1.40;;;;;;;5.61;100.00;101394.06;5051650;28;20111;-83
2022/01/08 10:34:07;;;;;;;7.78;1.67;;;;;;;5.64;100.00;101402.88;5051502;28;20045;-83
2022/01/08 10:36:37;;;;;;;4.45;1.48;;;;;;;5.67;100.00;101400.47;5038709;28;20053;-84
2022/01/08 10:39:08;;;;;;;4.00;0.98;;;;;;;5.65;100.00;101406.31;5051531;28;20045;-84
2022/01/08 10:41:41;;;;;;;2.78;1.08;;;;;;;5.59;100.00;101401.72;5037869;28;20096;-80
2022/01/08 10:44:14;;;;;;;10.10;1.25;;;;;;;5.65;100.00;101407.19;5051400;28;20041;-81
2022/01/08 10:46:55;;;;;;;4.20;1.15;;;;;;;5.66;100.00;101420.94;5051538;28;20053;-82
2022/01/08 10:49:31;;;;;;;6.40;1.17;;;;;;;5.66;100.00;101424.38;5054091;28;20105;-83
2022/01/08 10:52:00;;;;;;;3.40;1.27;;;;;;;5.68;100.00;101434.75;5052167;28;20080;-82
2022/01/08 10:54:30;;;;;;;4.75;1.27;;;;;;;5.70;100.00;101445.09;5051004;28;20060;-85
2022/01/08 10:57:02;;;;;;;8.98;1.42;;;;;;;5.72;100.00;101448.66;5051253;28;20521;-83
2022/01/08 10:59:31;;;;;;;8.77;1.08;;;;;;;5.71;100.00;101446.88;5051456;28;20072;-85
2022/01/08 11:02:02;;;;;;;5.85;1.33;;;;;;;5.70;100.00;101445.09;5051079;28;20048;-83
2022/01/08 11:04:46;;;;;;;6.85;1.33;;;;;;;5.69;100.00;101446.78;5050946;28;20044;-80
2022/01/08 11:07:16;;;;;;;2.45;0.80;;;;;;;5.70;100.00;101457.94;5051447;28;20045;-82
2022/01/08 11:09:46;;;;;;;4.40;1.10;;;;;;;5.69;100.00;101456.19;5051125;28;20103;-83
2022/01/08 11:12:18;;;;;;;2.97;0.90;;;;;;;5.69;100.00;101453.59;5049593;28;20102;-78
2022/01/08 11:17:38;;;;;;;3.55;0.95;;;;;;;5.69;100.00;101461.31;5040724;28;20041;-81
2022/01/08 11:20:10;;;;;;;5.03;1.02;;;;;;;5.71;100.00;101464.84;5031660;28;20085;-82
2022/01/08 11:22:41;;;;;;;4.25;0.88;;;;;;;5.71;100.00;101458.03;5031001;28;20115;-82
2022/01/08 11:25:12;;;;;;;10.23;1.42;;;;;;;5.72;100.00;101461.47;5031915;28;20116;-82
2022/01/08 11:27:47;;;;;;;4.20;1.38;;;;;;;5.74;100.00;101468.47;5018280;28;20045;-82
2022/01/08 11:30:20;;;;;;;1.77;0.60;;;;;;;5.76;100.00;101466.00;5033265;28;20045;-82
2022/01/08 11:32:50;;;;;;;3.53;1.13;;;;;;;5.79;100.00;101456.78;5020298;28;20415;-82
2022/01/08 11:35:22;;;;;;;6.68;1.27;;;;;;;5.84;100.00;101465.69;5035805;28;20136;-83
2022/01/08 11:37:52;;;;;;;3.33;0.75;;;;;;;5.90;100.00;101470.28;5035276;28;20060;-83
2022/01/08 11:40:24;;;;;;;9.88;1.80;;;;;;;5.91;100.00;101461.81;5035770;28;20072;-83
2022/01/08 11:42:54;;;;;;;2.85;1.13;;;;;;;5.91;100.00;101466.94;5034909;28;20045;-84
2022/01/08 11:45:27;;;;;;;5.03;0.77;;;;;;;5.88;100.00;101471.88;5035417;28;20434;-82
2022/01/08 11:47:59;;;;;;;2.95;1.20;;;;;;;5.85;100.00;101471.72;5035327;28;20073;-83
2022/01/08 11:50:29;;;;;;;2.05;1.10;;;;;;;5.83;100.00;101474.16;5038076;28;20494;-83
2022/01/08 11:53:15;;;;;;;2.88;1.02;;;;;;;5.84;100.00;101480.19;5034659;28;20057;-83
2022/01/08 11:55:45;;;;;;;4.22;1.08;;;;;;;5.86;100.00;101479.50;5034850;28;20502;-83
2022/01/08 11:58:25;;;;;;;5.60;0.82;;;;;;;5.89;100.00;101468.53;5034678;28;20510;-83
2022/01/08 12:00:57;;;;;;;3.45;1.02;;;;;;;5.89;100.00;101458.25;5034592;28;20072;-84